Dayton, OH (45415)

2:18 PM EDT on August 22, 2014 (GMT -0400)
Copperfield | Change Station
CLOSE
Current Station
Personal Weather Station
Location: Vandalia, OH
Elevation: 1004 ft
Nearby Weather Stations

Elev 1004 ft 39.87 °N, 84.22 °W | Updated 2 seconds ago

Mostly Cloudy
Mostly Cloudy
82.1 °F
Feels Like 89 °F
N
2.0
Wind Variable Wind from ENE
Gusts 6.0 mph

Today
High -- | Low -- °F
--% Chance of Precip.
Yesterday
High -- | Low -- °F
Precip. -- in
6:55 AM 8:23 PM
Waning Crescent, 7% visible
Pressure 29.98 in
Visibility 10.0 miles
Clouds Few 1500 ft
Scattered Clouds 14000 ft
Mostly Cloudy 20000 ft
Heat Index 89 °F
Dew Point 75 °F
Humidity 79%
Rainfall 0.76 in
Snow Depth Not available.
UV 5 out of 12
Pollen 9.40 out of 12
Ozone Good
PM2.5 Good
Flu Activity Not available.
METAR KDAY 221756Z 27008KT 10SM FEW015 SCT140 BKN200 28/23 A3000 RMK AO2 SLP150 60045 T02830228 10283 20217 53001

More Conditions Fewer Conditions

Pressure 29.98 in
Visibility 10.0 miles
Clouds Few 1500 ft
Scattered Clouds 14000 ft
Mostly Cloudy 20000 ft
Heat Index 89 °F
Dew Point 75 °F
Humidity 79%
Rainfall 0.76 in
Snow Depth Not available.
UV 5 out of 12
Pollen 9.40 out of 12
Ozone Good
PM2.5 Good
Flu Activity Not available.
METAR KDAY 221756Z 27008KT 10SM FEW015 SCT140 BKN200 28/23 A3000 RMK AO2 SLP150 60045 T02830228 10283 20217 53001

More Conditions Fewer Conditions

10-Day Weather Forecast

Almanac

Astronomy

Aug. 22, 2014 Rise Set
Actual Time 6:55 AM EDT 8:23 PM EDT
Civil Twilight 6:27 AM EDT 8:51 PM EDT
Nautical Twilight 5:53 AM EDT 9:25 PM EDT
Astronomical Twilight 5:16 AM EDT 10:01 PM EDT
Moon 4:17 AM EDT 6:31 PM EDT
Length of Visible Light 14h 24m
Length of Day
13h 27m
Tomorrow will be 2m 24s shorter.
Waning Crescent, 7% of the Moon is Illuminated
Today
Waning Crescent
Aug 25
New
Sep 2
First Quarter
Sep 8
Full
Sep 15
Last Quarter

Today's Extremes

State Highs State Lows

Community

WunderPhotos

Upload Photos

1,746,214 photos uploaded!

WunderBlogs® & News

Nearby

Air Quality

  Air Quality AQ Index Pollutant
Yesterday Good
PM2.5
Yesterday Good
OZONE
Current Good
PM2.5
Current Good
OZONE
Friday Moderate
PM2.5
Friday Good
OZONE
Saturday Good
PM2.5
Saturday Good
OZONE
Sunday Good
PM2.5
Sunday Good
OZONE
Monday Moderate
PM2.5
Monday Good
OZONE
Tuesday Moderate
PM2.5
Tuesday Good
OZONE

Snow Depth

Station Depth Elevation
No new snow has been reported.

Earthquake Activity

City Distance Mag. Time & Date
No recent earthquake activity has been reported nearby.
Minimum magnitude displayed is 2.5.

Coastal Water Temperatures

Place Temperature
No Stations Reporting

Nearby Weather Stations